Time;durP1;ratioP1;P1;durP2;ratioP2;P2;SDS_P1;SDS_P2;PMS_P1;PMS_P2;Temp;Humidity;BMP_temperature;BMP_pressure;BME280_temperature;BME280_humidity;BME280_pressure;Samples;Min_cycle;Max_cycle;Signal;HPM_P1;HPM_P2
2021/11/09 00:00:48;;;;;;;19.10;12.17;;;7.80;99.90;;;;;;2612569;54;20490;-74
2021/11/09 00:03:15;;;;;;;20.77;10.67;;;8.00;99.90;;;;;;2613129;54;20424;-72
2021/11/09 00:06:11;;;;;;;23.87;11.00;;;7.80;99.90;;;;;;2610718;47;20472;-72
2021/11/09 00:08:39;;;;;;;23.00;12.93;;;7.80;99.90;;;;;;2613339;39;20474;-72
2021/11/09 00:11:04;;;;;;;20.87;12.40;;;7.70;99.90;;;;;;2613793;39;21012;-71
2021/11/09 00:13:30;;;;;;;18.47;11.50;;;7.80;99.90;;;;;;2613392;54;20555;-72
2021/11/09 00:15:56;;;;;;;23.20;12.40;;;7.60;99.90;;;;;;2613494;54;20158;-73
2021/11/09 00:18:22;;;;;;;28.47;11.43;;;7.50;99.90;;;;;;2613371;54;20749;-73
2021/11/09 00:20:48;;;;;;;18.63;10.57;;;7.60;99.90;;;;;;2611690;54;20161;-71
2021/11/09 00:23:15;;;;;;;25.17;12.00;;;7.40;99.90;;;;;;2613338;54;20189;-73
2021/11/09 00:25:40;;;;;;;19.50;10.70;;;7.40;99.90;;;;;;2613055;54;20166;-74
2021/11/09 00:28:08;;;;;;;17.17;10.20;;;7.60;99.90;;;;;;2613336;39;20777;-70
2021/11/09 00:30:34;;;;;;;24.83;10.87;;;7.60;99.90;;;;;;2612729;54;20178;-72
2021/11/09 00:33:00;;;;;;;23.07;11.67;;;7.60;99.90;;;;;;2612324;54;20419;-72
2021/11/09 00:35:28;;;;;;;20.80;11.27;;;7.50;99.90;;;;;;2613469;54;20154;-71
2021/11/09 00:37:55;;;;;;;23.40;11.03;;;7.50;99.90;;;;;;2613188;54;20463;-72
2021/11/09 00:40:24;;;;;;;20.17;10.43;;;7.50;99.90;;;;;;2613118;51;20420;-72
2021/11/09 00:42:50;;;;;;;18.73;11.20;;;7.30;99.90;;;;;;2613464;54;20451;-72
2021/11/09 00:45:16;;;;;;;22.70;11.30;;;7.30;99.90;;;;;;2613796;54;20416;-73
2021/11/09 00:47:44;;;;;;;20.63;11.97;;;7.40;99.90;;;;;;2611597;47;20440;-73
2021/11/09 00:50:12;;;;;;;19.30;11.30;;;7.20;99.90;;;;;;2612501;47;20481;-73
2021/11/09 00:52:38;;;;;;;20.67;10.87;;;6.90;99.90;;;;;;2613056;50;20454;-72
2021/11/09 00:55:06;;;;;;;19.27;10.10;;;7.00;99.90;;;;;;2613912;39;20682;-72
2021/11/09 00:57:31;;;;;;;17.80;10.40;;;7.00;99.90;;;;;;2610888;54;20446;-72
2021/11/09 00:59:57;;;;;;;19.67;11.20;;;7.10;99.90;;;;;;2613824;39;20872;-72
2021/11/09 01:02:23;;;;;;;26.60;11.37;;;7.30;99.90;;;;;;2611861;54;20202;-73
2021/11/09 01:04:49;;;;;;;15.33;10.43;;;7.20;99.90;;;;;;2612277;54;20770;-73
2021/11/09 01:07:15;;;;;;;24.87;12.30;;;6.90;99.90;;;;;;2613051;54;20158;-71
2021/11/09 01:09:40;;;;;;;19.67;10.50;;;6.90;99.90;;;;;;2611244;47;20431;-73
2021/11/09 01:12:08;;;;;;;18.83;11.23;;;7.00;99.90;;;;;;2612861;54;20271;-73
2021/11/09 01:14:37;;;;;;;24.87;11.87;;;7.00;99.90;;;;;;2614061;54;20163;-71
2021/11/09 01:17:04;;;;;;;21.47;12.17;;;7.00;99.90;;;;;;2612992;54;20403;-72
2021/11/09 01:19:32;;;;;;;25.50;12.67;;;7.00;99.90;;;;;;2613689;54;20491;-73
2021/11/09 01:21:59;;;;;;;20.00;10.77;;;6.90;99.90;;;;;;2611927;54;20383;-73
2021/11/09 01:24:25;;;;;;;13.37;9.60;;;6.90;99.90;;;;;;2613038;54;20499;-73
2021/11/09 01:26:51;;;;;;;15.57;10.87;;;6.90;99.90;;;;;;2613606;54;20415;-73
2021/11/09 01:29:16;;;;;;;19.53;12.00;;;6.90;99.90;;;;;;2614199;54;20161;-74
2021/11/09 01:31:43;;;;;;;14.77;10.80;;;6.80;99.90;;;;;;2613791;54;20174;-75
2021/11/09 01:34:09;;;;;;;33.43;12.87;;;7.10;99.90;;;;;;2614151;54;20426;-72
2021/11/09 01:36:35;;;;;;;25.57;13.40;;;7.00;99.90;;;;;;2613069;54;20410;-72
2021/11/09 01:39:02;;;;;;;21.87;12.70;;;7.00;99.90;;;;;;2612827;54;20394;-72
2021/11/09 01:41:28;;;;;;;30.13;12.77;;;6.90;99.90;;;;;;2612387;47;20436;-72
2021/11/09 01:43:55;;;;;;;26.23;12.50;;;6.90;99.90;;;;;;2613546;54;20607;-71
2021/11/09 01:46:22;;;;;;;18.03;12.60;;;7.10;99.90;;;;;;2613936;54;20194;-71
2021/11/09 01:48:49;;;;;;;24.57;12.93;;;7.00;99.90;;;;;;2614019;54;20456;-73
2021/11/09 01:51:17;;;;;;;15.87;10.43;;;6.90;99.90;;;;;;2613868;54;20451;-71
2021/11/09 01:53:46;;;;;;;21.63;10.17;;;6.90;99.90;;;;;;2614506;39;20957;-74
2021/11/09 01:56:15;;;;;;;20.57;11.13;;;6.90;99.90;;;;;;2612775;54;21029;-73
2021/11/09 01:58:42;;;;;;;21.60;11.43;;;6.90;99.90;;;;;;2613383;54;20455;-73
2021/11/09 02:01:14;;;;;;;23.77;12.37;;;6.90;99.90;;;;;;2613835;54;20426;-73
2021/11/09 02:03:44;;;;;;;31.03;12.17;;;7.10;99.90;;;;;;2613793;54;20420;-71
2021/11/09 02:06:13;;;;;;;20.57;12.13;;;6.80;99.90;;;;;;2613659;54;20466;-72
2021/11/09 02:08:40;;;;;;;21.90;11.83;;;6.80;99.90;;;;;;2614001;54;20515;-71
2021/11/09 02:11:06;;;;;;;30.60;11.57;;;6.60;99.90;;;;;;2612628;54;20503;-72
2021/11/09 02:13:33;;;;;;;14.80;9.43;;;6.60;99.90;;;;;;2613243;54;20832;-72
2021/11/09 02:15:58;;;;;;;20.93;10.90;;;6.50;99.90;;;;;;2612962;54;20461;-73
2021/11/09 02:18:25;;;;;;;20.57;11.03;;;6.60;99.90;;;;;;2614428;54;20928;-71
2021/11/09 02:20:59;;;;;;;20.93;13.57;;;6.80;99.90;;;;;;2612844;54;20761;-71
2021/11/09 02:23:27;;;;;;;25.07;11.27;;;6.60;99.90;;;;;;2613863;54;20395;-72
2021/11/09 02:25:54;;;;;;;22.17;11.23;;;6.70;99.90;;;;;;2613924;54;20403;-72
2021/11/09 02:28:21;;;;;;;18.53;10.97;;;6.70;99.90;;;;;;2613275;54;21102;-71
2021/11/09 02:30:47;;;;;;;22.27;12.77;;;6.60;99.90;;;;;;2612331;54;20952;-71
2021/11/09 02:33:13;;;;;;;25.57;10.70;;;6.50;99.90;;;;;;2614036;54;20414;-72
2021/11/09 02:35:40;;;;;;;18.53;10.77;;;6.30;99.90;;;;;;2614739;54;20427;-74
2021/11/09 02:38:06;;;;;;;22.13;11.77;;;6.40;99.90;;;;;;2612445;54;21020;-71
2021/11/09 02:40:34;;;;;;;17.83;10.90;;;6.40;99.90;;;;;;2613175;47;20428;-71
2021/11/09 02:43:06;;;;;;;16.50;11.07;;;6.40;99.90;;;;;;2613966;54;20403;-73
2021/11/09 02:45:44;;;;;;;19.90;11.00;;;6.30;99.90;;;;;;2613278;54;20390;-73
2021/11/09 02:48:17;;;;;;;19.87;11.10;;;6.30;99.90;;;;;;2613811;48;20927;-74
2021/11/09 02:50:51;;;;;;;23.43;11.50;;;6.10;99.90;;;;;;2614155;54;20400;-73
2021/11/09 02:55:48;;;;;;;16.80;11.53;;;6.20;99.90;;;;;;2613478;54;20438;-72
2021/11/09 03:03:30;;;;;;;18.33;10.37;;;6.40;99.90;;;;;;2613760;46;20425;-72
2021/11/09 03:08:48;;;;;;;20.47;11.63;;;6.20;99.90;;;;;;2612332;54;20415;-72
2021/11/09 03:11:14;;;;;;;22.30;11.30;;;6.10;99.90;;;;;;2612844;54;20422;-71
2021/11/09 03:13:43;;;;;;;18.77;12.30;;;6.00;99.90;;;;;;2613680;39;20818;-72
2021/11/09 03:16:12;;;;;;;29.80;12.70;;;6.00;99.90;;;;;;2614167;54;20419;-70
2021/11/09 03:18:43;;;;;;;23.77;11.63;;;6.10;99.90;;;;;;2614583;54;20546;-73
2021/11/09 03:45:40;;;;;;;16.20;11.80;;;6.10;99.90;;;;;;2614053;54;20427;-72
2021/11/09 03:48:13;;;;;;;26.83;14.20;;;6.30;99.90;;;;;;2612857;39;20847;-70
2021/11/09 03:50:40;;;;;;;21.13;11.50;;;6.20;99.90;;;;;;2613836;54;20422;-71
2021/11/09 03:53:13;;;;;;;23.20;12.40;;;6.20;99.90;;;;;;2613187;54;20443;-72
2021/11/09 03:58:25;;;;;;;28.97;13.30;;;6.10;99.90;;;;;;2614006;54;20430;-72
2021/11/09 04:05:47;;;;;;;27.00;13.20;;;6.20;99.90;;;;;;2613761;54;20435;-72
2021/11/09 04:11:18;;;;;;;21.93;12.37;;;6.10;99.90;;;;;;2613083;54;20451;-74
2021/11/09 04:13:54;;;;;;;20.27;12.13;;;6.30;99.90;;;;;;2612686;47;20411;-73
2021/11/09 04:22:49;;;;;;;18.57;11.73;;;6.20;99.90;;;;;;2610563;54;20433;-72
2021/11/09 04:27:47;;;;;;;28.07;12.73;;;6.10;99.90;;;;;;2612905;54;20407;-72
2021/11/09 05:10:07;;;;;;;23.90;14.00;;;6.40;99.90;;;;;;2614353;39;20795;-74
2021/11/09 05:12:29;;;;;;;24.03;14.80;;;6.50;99.90;;;;;;2613439;54;20437;-71
2021/11/09 05:14:55;;;;;;;33.70;15.20;;;6.60;99.90;;;;;;2613587;54;20399;-73
2021/11/09 05:17:22;;;;;;;32.07;15.80;;;6.50;99.90;;;;;;2613034;47;20268;-71
2021/11/09 05:19:49;;;;;;;23.67;14.80;;;6.30;99.90;;;;;;2612373;54;20450;-71
2021/11/09 05:22:15;;;;;;;36.57;14.10;;;6.30;99.90;;;;;;2613866;54;20435;-72
2021/11/09 05:24:44;;;;;;;29.00;15.20;;;6.30;99.90;;;;;;2612840;54;20408;-71
2021/11/09 05:27:11;;;;;;;37.27;15.50;;;6.30;99.90;;;;;;2613826;54;20423;-71
2021/11/09 05:29:38;;;;;;;33.10;15.27;;;6.20;99.90;;;;;;2613323;54;20415;-72
2021/11/09 05:32:04;;;;;;;28.20;15.20;;;6.40;99.90;;;;;;2613871;54;20411;-72
2021/11/09 05:34:30;;;;;;;27.40;14.70;;;6.50;99.90;;;;;;2614039;54;20431;-71
2021/11/09 05:36:57;;;;;;;30.37;14.73;;;6.70;99.90;;;;;;2612718;49;20448;-72
2021/11/09 05:39:32;;;;;;;42.17;17.90;;;6.90;99.90;;;;;;2614165;39;20796;-73
2021/11/09 05:41:58;;;;;;;36.03;14.43;;;6.60;99.90;;;;;;2614424;39;20779;-72
2021/11/09 05:44:23;;;;;;;21.40;14.40;;;6.70;99.90;;;;;;2614073;54;20447;-73
2021/11/09 05:46:49;;;;;;;36.80;15.87;;;6.50;99.90;;;;;;2614225;39;20835;-71
2021/11/09 05:49:15;;;;;;;34.57;15.67;;;6.40;99.90;;;;;;2611559;47;20438;-72
2021/11/09 05:51:42;;;;;;;36.47;15.67;;;6.40;99.90;;;;;;2612926;46;20163;-71
2021/11/09 05:54:10;;;;;;;29.13;17.37;;;6.50;99.90;;;;;;2613731;54;20158;-71
2021/11/09 05:56:36;;;;;;;26.30;13.00;;;6.50;99.90;;;;;;2614256;39;20823;-70
2021/11/09 05:59:02;;;;;;;30.83;14.90;;;6.30;99.90;;;;;;2613922;46;20443;-71
2021/11/09 06:01:28;;;;;;;37.03;15.70;;;6.30;99.90;;;;;;2611705;54;20424;-72
2021/11/09 06:03:57;;;;;;;32.43;15.57;;;6.50;99.90;;;;;;2612692;54;20459;-71
2021/11/09 06:06:22;;;;;;;22.93;14.87;;;6.60;99.90;;;;;;2612706;54;20410;-73
2021/11/09 06:08:50;;;;;;;26.73;15.20;;;6.60;99.90;;;;;;2614525;47;20523;-71
2021/11/09 06:11:17;;;;;;;22.67;14.23;;;6.50;99.90;;;;;;2611986;54;20150;-73
2021/11/09 06:13:47;;;;;;;21.20;14.87;;;6.60;99.90;;;;;;2613971;54;20395;-73
2021/11/09 06:16:13;;;;;;;28.97;16.90;;;6.60;99.90;;;;;;2613353;39;20768;-74
2021/11/09 06:18:39;;;;;;;29.70;15.50;;;6.50;99.90;;;;;;2611457;47;20987;-72
2021/11/09 06:21:05;;;;;;;27.67;15.03;;;6.50;99.90;;;;;;2612906;54;20419;-72
2021/11/09 06:23:31;;;;;;;28.83;14.60;;;6.40;99.90;;;;;;2613910;39;20921;-71
2021/11/09 06:25:57;;;;;;;35.73;15.30;;;6.70;99.90;;;;;;2613525;54;20230;-70
2021/11/09 06:28:23;;;;;;;32.50;16.97;;;6.60;99.90;;;;;;2612165;47;20407;-73
2021/11/09 06:30:52;;;;;;;34.30;17.57;;;6.50;99.90;;;;;;2612772;47;20451;-72
2021/11/09 06:33:19;;;;;;;22.70;15.70;;;6.50;99.90;;;;;;2610805;39;20941;-73
2021/11/09 06:35:45;;;;;;;31.40;16.57;;;6.50;99.90;;;;;;2614154;39;20813;-72
2021/11/09 06:38:11;;;;;;;25.53;15.00;;;6.30;99.90;;;;;;2611484;54;20520;-72
2021/11/09 06:40:37;;;;;;;25.90;16.60;;;6.30;99.90;;;;;;2613217;54;20147;-71
2021/11/09 06:43:05;;;;;;;27.70;14.60;;;6.20;99.90;;;;;;2612254;54;20450;-71
2021/11/09 06:45:31;;;;;;;35.50;16.50;;;6.20;99.90;;;;;;2611569;54;20403;-71
2021/11/09 06:47:57;;;;;;;45.87;15.10;;;6.20;99.90;;;;;;2610556;54;20507;-72
2021/11/09 06:50:24;;;;;;;30.27;13.70;;;6.30;99.90;;;;;;2610756;54;20690;-71
2021/11/09 06:52:50;;;;;;;26.37;15.03;;;6.30;99.90;;;;;;2608987;39;20710;-72
2021/11/09 06:55:16;;;;;;;40.87;15.80;;;6.40;99.90;;;;;;2606641;54;20550;-71
2021/11/09 06:57:43;;;;;;;25.67;13.93;;;6.40;99.90;;;;;;2608305;54;20435;-73
2021/11/09 07:00:12;;;;;;;25.40;16.57;;;6.50;99.90;;;;;;2608756;54;20453;-72
2021/11/09 07:02:39;;;;;;;28.37;15.37;;;6.60;99.90;;;;;;2608315;54;20401;-72
2021/11/09 07:05:05;;;;;;;35.43;17.03;;;6.70;99.90;;;;;;2625092;36;20489;-72
2021/11/09 07:07:31;;;;;;;25.67;15.97;;;6.70;99.90;;;;;;2606340;39;20908;-72
2021/11/09 07:09:57;;;;;;;31.10;15.67;;;6.80;99.90;;;;;;2606102;54;20446;-71
2021/11/09 07:12:22;;;;;;;31.20;14.17;;;6.90;99.90;;;;;;2603457;54;20182;-74
2021/11/09 07:14:50;;;;;;;24.87;16.60;;;6.80;99.90;;;;;;2605621;54;20171;-72
2021/11/09 07:17:16;;;;;;;28.80;15.37;;;6.70;99.90;;;;;;2608787;54;20714;-72
2021/11/09 07:19:47;;;;;;;36.80;16.00;;;6.80;99.90;;;;;;2608896;39;20859;-72
2021/11/09 07:22:13;;;;;;;37.00;18.47;;;6.90;99.90;;;;;;2608385;54;20948;-70
2021/11/09 07:24:39;;;;;;;33.60;18.10;;;6.90;99.90;;;;;;2609536;46;20480;-70
2021/11/09 07:27:05;;;;;;;25.60;15.67;;;7.10;99.90;;;;;;2608321;54;20395;-73
2021/11/09 07:29:31;;;;;;;32.03;16.47;;;7.10;99.90;;;;;;2608989;39;20566;-71
2021/11/09 07:31:57;;;;;;;43.90;19.43;;;7.20;99.90;;;;;;2608061;54;20367;-74
2021/11/09 07:34:23;;;;;;;31.13;16.80;;;7.20;99.90;;;;;;2610431;54;20158;-73
2021/11/09 07:36:49;;;;;;;37.47;17.50;;;7.10;99.90;;;;;;2605924;47;20430;-73
2021/11/09 07:39:15;;;;;;;34.10;16.60;;;7.00;99.90;;;;;;2608375;47;20415;-73
2021/11/09 07:41:41;;;;;;;39.03;15.40;;;7.20;99.90;;;;;;2608498;54;20278;-72
2021/11/09 07:44:08;;;;;;;27.53;16.73;;;7.10;99.90;;;;;;2607244;54;20411;-72
2021/11/09 07:46:35;;;;;;;27.00;15.07;;;7.10;99.90;;;;;;2609217;31;20705;-71
2021/11/09 07:49:02;;;;;;;30.33;17.00;;;7.10;99.90;;;;;;2612554;31;20936;-71
2021/11/09 07:51:28;;;;;;;28.73;14.50;;;7.20;99.90;;;;;;2607503;47;20426;-76
2021/11/09 07:53:57;;;;;;;23.33;14.20;;;7.20;99.90;;;;;;2610512;54;20501;-71
2021/11/09 07:56:26;;;;;;;30.67;15.40;;;7.30;99.90;;;;;;2607647;47;20422;-72
2021/11/09 08:01:59;;;;;;;29.37;14.03;;;7.60;99.90;;;;;;2607233;54;20540;-73
2021/11/09 08:04:34;;;;;;;31.50;16.70;;;8.10;99.90;;;;;;2609999;54;21008;-73
2021/11/09 08:07:09;;;;;;;35.87;15.30;;;8.50;99.90;;;;;;2608678;54;20415;-71
2021/11/09 08:09:35;;;;;;;23.37;12.43;;;8.80;99.70;;;;;;2610323;54;20401;-70
2021/11/09 08:12:03;;;;;;;20.23;12.57;;;9.50;98.70;;;;;;2611339;39;20798;-71
2021/11/09 08:14:30;;;;;;;28.57;11.87;;;9.70;98.20;;;;;;2611413;54;20400;-72
2021/11/09 08:16:56;;;;;;;17.40;10.13;;;10.00;97.40;;;;;;2611010;54;20391;-71
2021/11/09 08:19:23;;;;;;;15.23;8.70;;;10.50;95.90;;;;;;2611600;54;20411;-72
2021/11/09 08:21:52;;;;;;;19.63;11.00;;;10.60;93.20;;;;;;2611806;54;20419;-72
2021/11/09 08:24:19;;;;;;;12.07;8.73;;;10.60;92.70;;;;;;2610154;54;20387;-71
2021/11/09 08:26:47;;;;;;;12.17;9.27;;;10.60;92.50;;;;;;2610605;54;20384;-72
2021/11/09 08:29:13;;;;;;;20.10;10.80;;;10.80;93.00;;;;;;2610316;54;20415;-73
2021/11/09 08:31:43;;;;;;;13.53;7.87;;;11.20;92.20;;;;;;2610195;54;20893;-72
2021/11/09 08:34:09;;;;;;;17.33;9.23;;;11.00;92.00;;;;;;2610043;54;20396;-72
2021/11/09 08:36:35;;;;;;;14.87;8.00;;;10.90;90.20;;;;;;2608454;31;20873;-75
2021/11/09 08:39:05;;;;;;;12.83;8.10;;;11.00;91.10;;;;;;2609674;54;20431;-71
2021/11/09 08:41:44;;;;;;;12.63;7.83;;;11.70;89.20;;;;;;2610786;54;20423;-72
2021/11/09 08:44:17;;;;;;;16.67;9.60;;;11.50;88.20;;;;;;2611396;54;21028;-70
2021/11/09 08:46:56;;;;;;;14.90;9.67;;;11.30;90.60;;;;;;2610927;54;20983;-72
2021/11/09 08:49:25;;;;;;;14.13;7.27;;;11.80;88.90;;;;;;2610780;46;20461;-72
2021/11/09 08:51:52;;;;;;;13.90;6.97;;;12.00;86.80;;;;;;2611632;54;20515;-73
2021/11/09 09:04:56;;;;;;;17.63;8.13;;;14.00;76.90;;;;;;2612436;54;20399;-72
2021/11/09 09:07:29;;;;;;;14.13;7.57;;;13.80;76.20;;;;;;2610165;54;20420;-72
2021/11/09 09:09:56;;;;;;;11.23;7.90;;;14.00;75.80;;;;;;2612403;39;20802;-70
2021/11/09 09:12:24;;;;;;;14.87;6.87;;;14.10;75.00;;;;;;2611024;39;20799;-71
2021/11/09 09:14:51;;;;;;;13.27;7.40;;;14.20;75.20;;;;;;2610374;54;20495;-70
2021/11/09 09:17:17;;;;;;;10.50;7.23;;;15.00;72.30;;;;;;2612320;47;20419;-70
2021/11/09 09:22:20;;;;;;;18.43;6.63;;;15.80;68.20;;;;;;2608916;54;20423;-71
2021/11/09 09:54:51;;;;;;;11.90;5.67;;;17.10;58.80;;;;;;2610743;46;20454;-72
2021/11/09 09:57:17;;;;;;;9.10;5.60;;;18.50;56.10;;;;;;2610148;54;21047;-71
2021/11/09 09:59:45;;;;;;;10.80;4.80;;;17.80;54.00;;;;;;2611135;54;20403;-72
2021/11/09 10:02:24;;;;;;;9.47;5.00;;;18.30;55.20;;;;;;2610055;54;20411;-72
2021/11/09 10:05:03;;;;;;;11.70;4.50;;;18.70;53.00;;;;;;2614232;46;20469;-70
2021/11/09 10:07:34;;;;;;;11.80;4.90;;;18.00;50.40;;;;;;2614065;39;20979;-72
2021/11/09 10:10:24;;;;;;;6.50;4.20;;;18.00;51.70;;;;;;2612462;47;20513;-72
2021/11/09 10:13:01;;;;;;;4.77;3.90;;;17.60;52.80;;;;;;2611015;54;20981;-71
2021/11/09 10:15:30;;;;;;;7.20;4.67;;;17.70;52.10;;;;;;2611755;54;20387;-70
2021/11/09 10:18:03;;;;;;;5.77;3.03;;;17.00;54.10;;;;;;2613052;46;20437;-70
2021/11/09 10:20:41;;;;;;;8.53;4.27;;;16.50;54.10;;;;;;2608082;54;20453;-71
2021/11/09 10:23:28;;;;;;;8.40;4.10;;;16.70;54.70;;;;;;2610833;54;20491;-74
2021/11/09 10:26:01;;;;;;;5.17;3.20;;;16.20;54.70;;;;;;2612601;39;20821;-71
2021/11/09 10:28:29;;;;;;;8.10;3.77;;;16.70;54.10;;;;;;2610807;47;20411;-71
2021/11/09 10:31:01;;;;;;;4.20;3.57;;;15.90;54.80;;;;;;2610404;47;20475;-72
2021/11/09 10:33:34;;;;;;;6.73;4.10;;;16.00;56.20;;;;;;2612513;39;20790;-70
2021/11/09 10:36:01;;;;;;;11.60;3.70;;;17.10;52.00;;;;;;2612193;54;20424;-71
2021/11/09 10:38:30;;;;;;;6.60;3.90;;;18.00;50.70;;;;;;2608971;54;20426;-71
2021/11/09 10:40:57;;;;;;;5.57;3.67;;;17.80;50.70;;;;;;2608966;54;20395;-72
2021/11/09 10:43:27;;;;;;;4.33;3.17;;;17.20;51.60;;;;;;2612439;54;20446;-71
2021/11/09 10:45:53;;;;;;;9.43;3.80;;;17.80;50.50;;;;;;2612229;54;20436;-71
2021/11/09 10:48:21;;;;;;;5.83;3.80;;;18.20;49.20;;;;;;2611300;54;20582;-71
2021/11/09 10:50:56;;;;;;;6.70;3.73;;;18.30;49.50;;;;;;2609227;54;20952;-70
2021/11/09 10:59:03;;;;;;;6.07;4.30;;;19.10;48.10;;;;;;2610515;39;20778;-73
2021/11/09 11:04:35;;;;;;;13.73;4.27;;;17.10;50.10;;;;;;2608933;47;20427;-71
2021/11/09 11:07:10;;;;;;;10.63;6.50;;;17.90;50.00;;;;;;2610915;54;20439;-71
2021/11/09 11:09:42;;;;;;;6.53;4.00;;;19.50;46.80;;;;;;2609913;51;20459;-71
2021/11/09 11:12:13;;;;;;;7.73;3.60;;;19.60;48.20;;;;;;2610151;46;20494;-75
2021/11/09 11:14:45;;;;;;;8.23;4.37;;;18.50;47.40;;;;;;2608746;47;20412;-71
2021/11/09 11:17:19;;;;;;;6.30;4.00;;;17.70;48.90;;;;;;2606901;46;21017;-71
2021/11/09 11:19:49;;;;;;;4.07;3.67;;;17.20;50.90;;;;;;2606068;54;20419;-72
2021/11/09 11:22:21;;;;;;;7.50;3.17;;;17.50;51.40;;;;;;2607847;54;20416;-72
2021/11/09 11:24:52;;;;;;;4.90;2.90;;;18.30;47.30;;;;;;2606393;54;20395;-74
2021/11/09 11:27:20;;;;;;;4.23;3.33;;;18.90;45.60;;;;;;2610517;54;20409;-71
2021/11/09 11:29:46;;;;;;;4.13;3.20;;;18.00;47.50;;;;;;2609191;47;20937;-70
2021/11/09 11:32:18;;;;;;;8.83;3.73;;;19.00;46.00;;;;;;2611774;54;20408;-73
2021/11/09 11:34:44;;;;;;;5.60;3.77;;;19.10;44.80;;;;;;2612296;54;20404;-72
2021/11/09 11:37:12;;;;;;;4.70;2.90;;;17.70;47.80;;;;;;2611627;51;21264;-72
2021/11/09 11:39:40;;;;;;;3.70;3.40;;;18.50;46.10;;;;;;2609541;47;21440;-69
2021/11/09 11:42:11;;;;;;;6.20;4.07;;;18.40;45.20;;;;;;2610951;54;20452;-71
2021/11/09 11:44:40;;;;;;;3.60;3.10;;;19.30;45.20;;;;;;2611491;54;20403;-70
2021/11/09 11:47:21;;;;;;;4.17;2.80;;;19.00;44.20;;;;;;2611205;54;20443;-70
2021/11/09 11:49:57;;;;;;;4.83;3.10;;;18.80;44.40;;;;;;2613223;39;20964;-71
2021/11/09 11:52:50;;;;;;;5.40;3.90;;;18.80;44.60;;;;;;2612146;54;20423;-72
2021/11/09 11:55:29;;;;;;;3.90;3.00;;;19.60;44.30;;;;;;2611028;47;20451;-71
2021/11/09 11:58:07;;;;;;;6.63;3.87;;;19.30;42.70;;;;;;2610679;39;20784;-71
2021/11/09 12:00:42;;;;;;;4.97;3.40;;;16.80;47.80;;;;;;2609701;39;20785;-72
2021/11/09 12:03:24;;;;;;;5.20;3.53;;;16.70;49.60;;;;;;2611269;54;20498;-71
2021/11/09 12:05:58;;;;;;;5.23;3.10;;;16.60;48.60;;;;;;2610443;47;20442;-71
2021/11/09 12:08:33;;;;;;;5.20;3.60;;;16.00;49.00;;;;;;2610577;39;20798;-71
2021/11/09 12:11:00;;;;;;;4.73;3.17;;;16.70;49.00;;;;;;2611352;47;20435;-70
2021/11/09 12:13:26;;;;;;;4.63;3.60;;;17.40;47.90;;;;;;2612512;39;20819;-72
2021/11/09 12:16:05;;;;;;;6.00;3.90;;;17.30;46.70;;;;;;2611132;54;20487;-71
2021/11/09 12:18:41;;;;;;;6.07;3.53;;;16.90;47.50;;;;;;2610714;47;21744;-73
2021/11/09 12:21:18;;;;;;;9.23;3.80;;;17.60;47.00;;;;;;2613354;47;21007;-71
2021/11/09 12:24:13;;;;;;;5.30;3.27;;;17.50;47.30;;;;;;2611662;39;20810;-72
2021/11/09 12:26:57;;;;;;;3.53;3.23;;;17.10;47.40;;;;;;2611796;54;20431;-71
2021/11/09 12:29:43;;;;;;;4.10;3.30;;;16.90;47.10;;;;;;2611578;39;20811;-70
2021/11/09 12:32:20;;;;;;;5.10;3.10;;;18.00;46.50;;;;;;2611511;54;20519;-72
2021/11/09 12:35:17;;;;;;;4.13;3.10;;;19.10;43.90;;;;;;2608827;47;21107;-72
2021/11/09 12:38:05;;;;;;;5.77;3.17;;;20.20;41.50;;;;;;2608877;47;20534;-75
2021/11/09 12:40:57;;;;;;;3.70;2.90;;;19.40;42.50;;;;;;2611470;39;20829;-72
2021/11/09 12:43:29;;;;;;;7.83;2.90;;;18.40;44.50;;;;;;2610809;54;20420;-72
2021/11/09 12:46:29;;;;;;;7.97;3.37;;;17.90;46.00;;;;;;2607436;54;20404;-73
2021/11/09 12:49:09;;;;;;;5.20;3.10;;;18.30;44.90;;;;;;2608308;47;21146;-75
2021/11/09 12:51:38;;;;;;;5.20;2.97;;;18.30;45.60;;;;;;2610596;47;20453;-74
2021/11/09 12:54:05;;;;;;;5.97;3.87;;;18.20;45.50;;;;;;2610802;54;20399;-73
2021/11/09 12:56:54;;;;;;;4.83;2.70;;;18.80;44.10;;;;;;2609514;54;20432;-72
2021/11/09 12:59:28;;;;;;;5.20;3.10;;;19.30;43.90;;;;;;2609098;31;20846;-72
2021/11/09 13:07:34;;;;;;;2.70;2.37;;;21.10;40.00;;;;;;2609788;54;20403;-72
2021/11/09 13:10:11;;;;;;;3.57;2.97;;;21.20;39.80;;;;;;2609954;54;20531;-71
2021/11/09 13:12:39;;;;;;;6.13;3.60;;;20.30;39.40;;;;;;2609030;47;21055;-71
2021/11/09 13:15:09;;;;;;;5.10;2.63;;;19.90;41.50;;;;;;2610592;47;20437;-71
2021/11/09 13:17:49;;;;;;;19.23;5.40;;;20.10;41.50;;;;;;2611389;47;20999;-71
2021/11/09 13:23:03;;;;;;;4.40;2.90;;;20.70;40.20;;;;;;2610110;54;20452;-74
2021/11/09 13:25:41;;;;;;;7.30;4.30;;;20.70;40.50;;;;;;2609797;54;20418;-71
2021/11/09 13:28:13;;;;;;;6.73;3.40;;;20.10;40.50;;;;;;2607539;54;20425;-75
2021/11/09 13:30:41;;;;;;;3.70;2.73;;;20.20;41.30;;;;;;2610784;54;21026;-73
2021/11/09 13:33:08;;;;;;;4.80;3.40;;;20.60;41.30;;;;;;2611294;39;21004;-73
2021/11/09 13:35:36;;;;;;;7.53;3.20;;;19.80;42.00;;;;;;2610306;54;20395;-72
2021/11/09 13:38:18;;;;;;;6.30;3.27;;;20.80;40.80;;;;;;2610654;54;20476;-72
2021/11/09 13:40:58;;;;;;;5.77;3.17;;;20.30;39.30;;;;;;2608879;54;22199;-72
2021/11/09 13:43:27;;;;;;;6.70;4.10;;;19.40;42.10;;;;;;2611926;47;20411;-72
2021/11/09 13:46:02;;;;;;;4.33;2.87;;;19.30;43.10;;;;;;2611334;54;20412;-71
2021/11/09 13:48:29;;;;;;;6.13;3.80;;;18.90;43.70;;;;;;2609153;39;21506;-71
2021/11/09 13:50:58;;;;;;;8.17;2.63;;;18.90;43.20;;;;;;2611378;54;20388;-75
2021/11/09 13:53:32;;;;;;;4.67;2.97;;;19.70;42.10;;;;;;2611922;54;20412;-72
2021/11/09 13:55:58;;;;;;;3.90;3.53;;;18.80;43.00;;;;;;2610679;54;20411;-71
2021/11/09 13:58:24;;;;;;;3.90;3.50;;;18.20;44.30;;;;;;2609967;54;20930;-73
2021/11/09 14:00:55;;;;;;;6.67;3.50;;;18.20;44.40;;;;;;2611930;54;20418;-70
2021/11/09 14:16:55;;;;;;;9.07;4.03;;;18.90;44.00;;;;;;2611644;54;20447;-73
2021/11/09 14:19:27;;;;;;;8.40;3.53;;;19.50;42.10;;;;;;2611103;54;20426;-71
2021/11/09 14:21:54;;;;;;;8.60;3.80;;;19.10;43.30;;;;;;2611475;54;20406;-73
2021/11/09 14:24:21;;;;;;;6.40;3.63;;;18.10;43.90;;;;;;2610809;47;20408;-72
2021/11/09 14:27:13;;;;;;;8.43;4.03;;;17.20;46.50;;;;;;2609731;54;20432;-73
2021/11/09 14:29:51;;;;;;;5.33;3.43;;;17.20;47.20;;;;;;2611388;47;21015;-72
2021/11/09 14:32:25;;;;;;;5.50;3.47;;;17.60;45.90;;;;;;2611611;54;20427;-77
2021/11/09 14:35:05;;;;;;;5.37;3.23;;;17.20;46.90;;;;;;2610877;46;20414;-71
2021/11/09 14:37:35;;;;;;;6.43;3.13;;;17.40;46.60;;;;;;2610069;54;20511;-71
2021/11/09 14:40:13;;;;;;;4.73;3.27;;;18.00;46.70;;;;;;2610500;47;20427;-72
2021/11/09 14:43:08;;;;;;;6.23;3.03;;;19.40;44.20;;;;;;2612281;39;21039;-72
2021/11/09 14:48:17;;;;;;;5.10;3.27;;;20.50;41.30;;;;;;2611371;54;20466;-71
2021/11/09 14:54:12;;;;;;;6.90;3.40;;;19.60;43.30;;;;;;2609891;54;20428;-71
2021/11/09 14:56:27;;;;;;;6.50;3.30;;;19.30;44.00;;;;;;2611005;39;20837;-72
2021/11/09 14:58:56;;;;;;;4.70;3.83;;;17.80;47.10;;;;;;2610300;47;20423;-72
2021/11/09 15:01:43;;;;;;;7.27;3.63;;;17.10;48.50;;;;;;2609734;47;20412;-72
2021/11/09 15:04:14;;;;;;;6.43;3.93;;;15.30;52.30;;;;;;2609363;54;20411;-74
2021/11/09 15:33:47;;;;;;;5.30;3.90;;;13.60;59.90;;;;;;2608574;47;20427;-74
2021/11/09 15:38:48;;;;;;;6.37;4.40;;;13.10;67.70;;;;;;2608158;54;20543;-73
2021/11/09 15:41:14;;;;;;;8.53;4.43;;;12.90;69.50;;;;;;2609609;39;20922;-74
2021/11/09 15:43:40;;;;;;;8.00;4.63;;;12.60;71.80;;;;;;2608560;54;20427;-72
2021/11/09 15:46:08;;;;;;;4.43;3.30;;;12.50;72.10;;;;;;2608138;54;20421;-72
2021/11/09 15:48:34;;;;;;;9.27;4.80;;;12.30;73.20;;;;;;2607787;47;20485;-72
2021/11/09 15:51:01;;;;;;;8.47;4.30;;;12.10;74.20;;;;;;2609102;54;20407;-71
2021/11/09 15:53:30;;;;;;;9.30;4.50;;;12.20;73.10;;;;;;2607388;54;20416;-74
2021/11/09 15:55:58;;;;;;;8.90;4.63;;;12.00;74.00;;;;;;2608308;54;20465;-73
2021/11/09 15:58:30;;;;;;;11.93;5.03;;;12.00;75.10;;;;;;2607167;54;20546;-71
2021/11/09 16:00:56;;;;;;;10.80;5.57;;;11.80;76.70;;;;;;2608335;54;21566;-72
2021/11/09 16:03:22;;;;;;;7.30;5.30;;;11.60;78.60;;;;;;2608447;54;20419;-71
2021/11/09 16:05:51;;;;;;;5.80;5.30;;;11.40;79.90;;;;;;2608568;47;20438;-72
2021/11/09 16:08:17;;;;;;;10.30;4.97;;;11.10;82.10;;;;;;2607461;39;20532;-72
2021/11/09 16:10:43;;;;;;;8.93;4.97;;;11.10;81.80;;;;;;2609449;54;20422;-73
2021/11/09 16:13:10;;;;;;;11.40;6.03;;;11.10;81.60;;;;;;2608621;54;20515;-73
2021/11/09 16:15:35;;;;;;;6.70;6.07;;;11.10;81.90;;;;;;2609759;54;20427;-72
2021/11/09 16:18:02;;;;;;;13.40;6.17;;;10.80;83.60;;;;;;2608947;54;20514;-73
2021/11/09 16:20:28;;;;;;;13.23;5.77;;;10.60;85.70;;;;;;2610024;54;20154;-73